N335B CYHZ-CYQM
Flight info
| Callsign | N335B |
|---|---|
| Flight time | N/A |
| Altitude | 16000 |
| Route | YHZ |
| Aircraft | CRJ7/M-SDFGIRWY/S |
Departure
| Time | 2026-05-06 01:02 |
|---|---|
| Airport | Halifax / Stanfield International Airport (CYHZ) |
Arrival
| Time | N/A |
|---|---|
| Airport | Greater Moncton Roméo LeBlanc International Airport (CYQM) |
| Time | Latitude | Longitude | Altitude | Speed | Heading |
|---|---|---|---|---|---|
| 2026-05-06 00:46 | 44.88196 | -63.51667 | 450 ft | 0 kts | 211° |
| 2026-05-06 00:55 | 44.88195 | -63.51667 | 450 ft | 0 kts | 193° |
| 2026-05-06 00:56 | 44.88194 | -63.51667 | 450 ft | 1 kts | 173° |
| 2026-05-06 00:56 | 44.88187 | -63.51664 | 450 ft | 3 kts | 161° |
| 2026-05-06 00:56 | 44.88176 | -63.51655 | 450 ft | 0 kts | 137° |
| 2026-05-06 00:56 | 44.88168 | -63.51643 | 450 ft | 0 kts | 135° |
| 2026-05-06 00:57 | 44.88148 | -63.51601 | 450 ft | 14 kts | 122° |
| 2026-05-06 00:57 | 44.88125 | -63.51540 | 450 ft | 1 kts | 91° |
| 2026-05-06 00:57 | 44.88125 | -63.51531 | 450 ft | 0 kts | 73° |
| 2026-05-06 00:57 | 44.88126 | -63.51529 | 450 ft | 2 kts | 63° |
| 2026-05-06 00:58 | 44.88176 | -63.51473 | 450 ft | 12 kts | 37° |
| 2026-05-06 00:58 | 44.88246 | -63.51398 | 450 ft | 14 kts | 37° |
| 2026-05-06 00:58 | 44.88328 | -63.51314 | 450 ft | 15 kts | 35° |
| 2026-05-06 00:58 | 44.88396 | -63.51203 | 450 ft | 14 kts | 91° |
| 2026-05-06 00:59 | 44.88375 | -63.51128 | 449 ft | 0 kts | 122° |
| 2026-05-06 01:00 | 44.88363 | -63.51101 | 449 ft | 8 kts | 124° |
| 2026-05-06 01:00 | 44.88307 | -63.51020 | 448 ft | 13 kts | 161° |
| 2026-05-06 01:01 | 44.88240 | -63.51059 | 447 ft | 12 kts | 232° |
| 2026-05-06 01:01 | 44.88218 | -63.51092 | 447 ft | 0 kts | 213° |
| 2026-05-06 01:01 | 44.88217 | -63.51092 | 447 ft | 0 kts | 216° |
| 2026-05-06 01:01 | 44.88166 | -63.51143 | 447 ft | 37 kts | 215° |
| 2026-05-06 01:02 | 44.87717 | -63.51585 | 450 ft | 117 kts | 214° |
| 2026-05-06 01:02 | 44.86964 | -63.52381 | 884 ft | 143 kts | 219° |
| 2026-05-06 01:02 | 44.86209 | -63.53258 | 2022 ft | 130 kts | 221° |
| 2026-05-06 01:02 | 44.85499 | -63.53904 | 3335 ft | 114 kts | 235° |
| 2026-05-06 01:03 | 44.85654 | -63.55007 | 4263 ft | 145 kts | 301° |
| 2026-05-06 01:03 | 44.86437 | -63.55952 | 5106 ft | 155 kts | 302° |
| 2026-05-06 01:03 | 44.87272 | -63.57044 | 5875 ft | 170 kts | 303° |
| 2026-05-06 01:03 | 44.88139 | -63.58214 | 6812 ft | 175 kts | 304° |
| 2026-05-06 01:04 | 44.89011 | -63.59413 | 7847 ft | 175 kts | 304° |
| 2026-05-06 01:04 | 44.89798 | -63.60533 | 8777 ft | 174 kts | 304° |